Ashland, NJ

4:17 AM EST on November 24, 2014 (GMT -0500)
Franklin Square | Change Station
CLOSE
Current Station
Personal Weather Station
Location: Voorhees, NJ
Elevation: 109 ft
Nearby Weather Stations

Elev 109 ft 39.85 °N, 74.99 °W | Updated 0 second ago

Overcast
Overcast
63.7 °F
Feels Like 63.7 °F
N
19.6
Wind Variable Wind from SW
Gusts 19.6 mph

Today
High -- | Low -- °F
--% Chance of Precip.
Yesterday
High -- | Low -- °F
Precip. -- in
6:54 AM 4:38 PM
Waxing Crescent, 4% visible
Pressure 29.72 in
Visibility 10.0 miles
Clouds Overcast 1300 ft
Dew Point 61 °F
Humidity 91%
Rainfall 0.32 in
Snow Depth Not available.
UV 0 out of 12
Pollen .10 out of 12
Air Quality Not available.
Flu Activity Not available.
METAR KVAY 240854Z AUTO 17012G27KT 10SM -RA OVC013 17/15 A2971 RMK AO2 PK WND 16035/0836 SLP062 P0008 60033 T01670150 56055

More Conditions Fewer Conditions

Pressure 29.72 in
Visibility 10.0 miles
Clouds Overcast 1300 ft
Dew Point 61 °F
Humidity 91%
Rainfall 0.32 in
Snow Depth Not available.
UV 0 out of 12
Pollen .10 out of 12
Air Quality Not available.
Flu Activity Not available.
METAR KVAY 240854Z AUTO 17012G27KT 10SM -RA OVC013 17/15 A2971 RMK AO2 PK WND 16035/0836 SLP062 P0008 60033 T01670150 56055

More Conditions Fewer Conditions

10-Day Weather Forecast

Almanac

Astronomy

Nov. 24, 2014 Rise Set
Actual Time
Civil Twilight
Nautical Twilight
Astronomical Twilight
Moon
Length of Visible Light
Length of Day
Tomorrow will be .
, % of the Moon is Illuminated

Today's Extremes

State Highs State Lows

Community

WunderPhotos

Upload Photos

1,773,294 photos uploaded!

WunderBlogs® & News

Nearby

Air Quality

  Air Quality AQ Index Pollutant
Not available.

Snow Depth

Station Depth Elevation

Earthquake Activity

City Distance Mag. Time & Date
Minimum magnitude displayed is 2.5.

Coastal Water Temperatures

Place Temperature

Nearby Weather Stations